Terminal Aerodrome Forecast
Issued by NWS Wilmington, OH

Current Version | Previous Version | Text Only | Print | Product List | Glossary Off
Versions: 1 2 3 4 5 6 7 8 9 10 11 12 13 14 15 16 17 18 19 20 21 22

000
FTUS41 KILN 241121
TAFDAY
TAF
KDAY 241121Z 2412/2512 10010KT P6SM -SHRA OVC050
     FM241400 11012KT 6SM -SHRA BR BKN025 OVC040
     FM241700 10012KT 6SM -SHRA BR OVC018
     FM242200 07012KT 6SM -SHRA BR OVC012
     FM250300 01008KT P6SM OVC009=

USA.gov is the U.S. government's official web portal to all federal, state and local government web resources and services.